Terminal Aerodrome Forecast
Issued by NWS Norman, OK

Home | Current Version | Previous Version | Text Only | Print | Product List | Glossary On
Versions: 1 2 3 4 5 6 7 8 9 10 11 12 13 14 15 16 17 18 19 20 21 22 23 24 25 26 27 28
561
FTUS44 KOUN 190520
TAFSPS
TAF
KSPS 190520Z 1906/2006 31009KT P6SM SCT120
     FM191500 35016G24KT P6SM SKC
     FM200100 13005KT P6SM SKC=

USA.gov is the U.S. government's official web portal to all federal, state and local government web resources and services.